createdAt,value
2018-09-27T00:00:32.971Z,5.13
2018-09-27T00:03:01.553Z,4.83
2018-09-27T00:05:30.070Z,5.10
2018-09-27T00:07:59.376Z,4.73
2018-09-27T00:10:27.879Z,4.67
2018-09-27T00:12:57.005Z,4.40
2018-09-27T00:15:25.734Z,5.57
2018-09-27T00:17:54.243Z,4.90
2018-09-27T00:20:22.856Z,5.50
2018-09-27T00:22:51.368Z,5.60
2018-09-27T00:25:20.043Z,5.10
2018-09-27T00:27:48.538Z,4.97
2018-09-27T00:30:17.180Z,4.60
2018-09-27T00:32:45.884Z,4.60
2018-09-27T00:35:14.433Z,5.33
2018-09-27T00:37:43.035Z,4.47
2018-09-27T00:40:11.546Z,4.97
2018-09-27T00:42:40.213Z,5.10
2018-09-27T00:45:08.780Z,5.00
2018-09-27T00:47:37.438Z,5.60
2018-09-27T00:50:07.013Z,5.60
2018-09-27T00:52:35.438Z,5.10
2018-09-27T00:55:04.611Z,5.00
2018-09-27T00:57:33.253Z,5.73
2018-09-27T01:00:01.658Z,5.27
2018-09-27T01:02:30.047Z,5.50
2018-09-27T01:04:59.076Z,5.77
2018-09-27T01:07:28.293Z,5.73
2018-09-27T01:09:56.981Z,4.90
2018-09-27T01:12:25.398Z,5.57
2018-09-27T01:14:53.836Z,5.73
2018-09-27T01:17:22.200Z,5.50
2018-09-27T01:19:50.638Z,6.13
2018-09-27T01:22:19.109Z,5.53
2018-09-27T01:24:48.172Z,5.83
2018-09-27T01:27:16.583Z,5.80
2018-09-27T01:29:44.986Z,6.20
2018-09-27T01:32:13.784Z,6.00
2018-09-27T01:34:43.122Z,5.93
2018-09-27T01:37:12.159Z,5.53
2018-09-27T01:39:40.621Z,6.23
2018-09-27T01:42:09.036Z,5.77
2018-09-27T01:44:37.468Z,5.93
2018-09-27T01:47:05.930Z,6.20
2018-09-27T01:49:34.892Z,5.60
2018-09-27T01:52:03.445Z,5.43
2018-09-27T01:54:31.839Z,5.87
2018-09-27T01:57:00.268Z,5.97
2018-09-27T01:59:29.244Z,5.70
2018-09-27T02:01:57.661Z,5.83
2018-09-27T02:04:26.198Z,5.87
2018-09-27T02:06:54.620Z,5.60
2018-09-27T02:09:23.019Z,5.80
2018-09-27T02:11:51.557Z,6.60
2018-09-27T02:14:20.105Z,6.13
2018-09-27T02:16:48.834Z,5.87
2018-09-27T02:19:18.231Z,5.50
2018-09-27T02:21:46.997Z,5.87
2018-09-27T02:24:15.570Z,6.20
2018-09-27T02:26:43.990Z,5.97
2018-09-27T02:29:13.202Z,6.13
2018-09-27T02:31:41.640Z,6.63
2018-09-27T02:34:11.323Z,5.90
2018-09-27T02:36:39.910Z,5.73
2018-09-27T02:39:09.975Z,6.40
2018-09-27T02:41:39.039Z,6.10
2018-09-27T02:44:07.544Z,6.40
2018-09-27T02:46:37.166Z,6.03
2018-09-27T02:49:05.710Z,6.03
2018-09-27T02:51:35.188Z,5.93
2018-09-27T02:54:03.748Z,6.30
2018-09-27T02:56:32.168Z,5.43
2018-09-27T02:59:00.547Z,6.07
2018-09-27T03:01:30.139Z,6.47
2018-09-27T03:03:58.602Z,5.90
2018-09-27T03:06:27.153Z,6.67
2018-09-27T03:08:56.281Z,6.30
2018-09-27T03:11:24.746Z,5.87
2018-09-27T03:13:53.231Z,6.27
2018-09-27T03:16:21.724Z,5.80
2018-09-27T03:18:50.209Z,5.77
2018-09-27T03:21:18.750Z,5.80
2018-09-27T03:23:47.194Z,5.83
2018-09-27T03:26:16.223Z,6.00
2018-09-27T03:28:44.740Z,6.13
2018-09-27T03:31:13.106Z,6.37
2018-09-27T03:33:42.247Z,6.17
2018-09-27T03:36:10.721Z,6.47
2018-09-27T03:38:39.145Z,6.13
2018-09-27T03:41:08.409Z,6.30
2018-09-27T03:43:36.868Z,5.97
2018-09-27T03:46:05.264Z,5.63
2018-09-27T03:48:33.755Z,6.20
2018-09-27T03:51:02.202Z,6.00
2018-09-27T03:53:30.742Z,5.90
2018-09-27T03:55:59.128Z,6.27
2018-09-27T03:58:27.518Z,6.30
2018-09-27T04:00:55.993Z,6.27
2018-09-27T04:03:24.495Z,5.83
2018-09-27T04:05:52.823Z,6.43
2018-09-27T04:08:21.232Z,6.00
2018-09-27T04:10:49.911Z,7.03
2018-09-27T04:13:18.318Z,6.17
2018-09-27T04:15:46.826Z,6.20
2018-09-27T04:18:15.199Z,6.00
2018-09-27T04:20:52.114Z,6.70
2018-09-27T04:23:22.242Z,6.37
2018-09-27T04:25:51.522Z,6.50
2018-09-27T04:28:20.525Z,6.67
2018-09-27T04:30:49.196Z,6.43
2018-09-27T04:33:18.091Z,6.27
2018-09-27T04:35:47.218Z,6.10
2018-09-27T04:38:15.851Z,6.20
2018-09-27T04:40:44.713Z,6.03
2018-09-27T04:43:14.368Z,6.13
2018-09-27T04:45:42.896Z,6.30
2018-09-27T04:48:11.414Z,6.53
2018-09-27T04:50:40.267Z,5.80
2018-09-27T04:53:08.788Z,5.83
2018-09-27T04:55:37.865Z,7.00
2018-09-27T04:58:06.350Z,5.30
2018-09-27T05:00:35.362Z,6.13
2018-09-27T05:03:03.784Z,6.97
2018-09-27T05:05:32.325Z,6.67
2018-09-27T05:08:00.757Z,5.53
2018-09-27T05:10:29.151Z,6.33
2018-09-27T05:12:57.562Z,6.73
2018-09-27T05:15:26.048Z,6.27
2018-09-27T05:17:54.500Z,6.90
2018-09-27T05:20:22.893Z,5.67
2018-09-27T05:22:51.336Z,5.90
2018-09-27T05:25:19.815Z,6.53
2018-09-27T05:27:48.380Z,6.17
2018-09-27T05:30:17.035Z,6.00
2018-09-27T05:32:45.542Z,6.27
2018-09-27T05:35:15.348Z,6.37
2018-09-27T05:37:46.865Z,5.80
2018-09-27T05:40:29.101Z,5.93
2018-09-27T05:42:58.384Z,6.47
2018-09-27T05:45:26.937Z,5.70
2018-09-27T05:47:57.532Z,6.00
2018-09-27T05:50:25.929Z,6.20
2018-09-27T05:52:54.575Z,6.60
2018-09-27T05:55:23.139Z,5.67
2018-09-27T05:57:52.240Z,6.30
2018-09-27T06:00:20.866Z,6.57
2018-09-27T06:02:50.018Z,6.17
2018-09-27T06:05:18.506Z,6.50
2018-09-27T06:07:46.916Z,6.20
2018-09-27T06:10:15.461Z,6.40
2018-09-27T06:12:44.646Z,6.73
2018-09-27T06:15:13.979Z,7.17
2018-09-27T06:17:42.610Z,6.40
2018-09-27T06:20:11.095Z,6.27
2018-09-27T06:22:39.716Z,6.23
2018-09-27T06:25:08.187Z,6.33
2018-09-27T06:27:36.634Z,6.50
2018-09-27T06:30:05.684Z,6.90
2018-09-27T06:32:34.196Z,6.47
2018-09-27T06:35:03.048Z,7.10
2018-09-27T06:37:32.872Z,6.60
2018-09-27T06:40:01.547Z,6.57
2018-09-27T06:42:30.521Z,7.17
2018-09-27T06:47:32.715Z,7.40
2018-09-27T06:50:01.291Z,6.93
2018-09-27T06:52:30.460Z,7.00
2018-09-27T06:54:59.275Z,7.17
2018-09-27T06:57:28.364Z,6.77
2018-09-27T06:59:56.983Z,7.40
2018-09-27T07:02:25.673Z,6.60
2018-09-27T07:04:54.178Z,7.30
2018-09-27T07:07:22.752Z,7.80
2018-09-27T07:09:52.179Z,6.83
2018-09-27T07:12:21.853Z,6.93
2018-09-27T07:14:50.917Z,7.23
2018-09-27T07:17:19.642Z,7.03
2018-09-27T07:19:48.138Z,7.50
2018-09-27T07:22:17.881Z,7.17
2018-09-27T07:24:48.350Z,7.83
2018-09-27T07:27:18.282Z,7.10
2018-09-27T07:29:46.999Z,7.40
2018-09-27T07:32:16.100Z,8.83
2018-09-27T07:34:45.157Z,7.83
2018-09-27T07:37:15.187Z,7.83
2018-09-27T07:39:44.531Z,7.70
2018-09-27T07:42:13.013Z,8.10
2018-09-27T07:44:41.621Z,8.47
2018-09-27T07:47:10.759Z,8.10
2018-09-27T07:49:41.442Z,8.27
2018-09-27T07:52:10.108Z,8.70
2018-09-27T07:54:39.453Z,8.70
2018-09-27T07:57:09.678Z,8.57
2018-09-27T07:59:38.208Z,8.97
2018-09-27T08:02:06.668Z,8.40
2018-09-27T08:04:35.513Z,9.27
2018-09-27T08:07:03.987Z,8.20
2018-09-27T08:09:32.468Z,9.47
2018-09-27T08:12:01.092Z,8.67
2018-09-27T08:14:30.503Z,8.80
2018-09-27T08:16:59.165Z,10.53
2018-09-27T08:19:28.360Z,9.30
2018-09-27T08:21:56.938Z,9.53
2018-09-27T08:24:26.473Z,9.50
2018-09-27T08:26:56.413Z,9.03
2018-09-27T08:29:24.875Z,9.80
2018-09-27T08:31:53.447Z,9.73
2018-09-27T08:34:22.009Z,10.47
2018-09-27T08:36:50.575Z,9.40
2018-09-27T08:39:19.032Z,10.07
2018-09-27T08:41:47.544Z,10.67
2018-09-27T08:44:16.065Z,9.93
2018-09-27T08:46:44.600Z,9.90
2018-09-27T08:49:14.155Z,9.97
2018-09-27T08:51:43.042Z,10.17
2018-09-27T08:54:12.288Z,9.27
2018-09-27T08:56:40.846Z,9.70
2018-09-27T08:59:10.053Z,9.40
2018-09-27T09:01:39.288Z,9.87
2018-09-27T09:04:08.772Z,10.17
2018-09-27T09:06:37.270Z,10.87
2018-09-27T09:09:09.371Z,9.80
2018-09-27T09:11:37.945Z,11.03
2018-09-27T09:14:07.152Z,10.50
2018-09-27T09:16:36.569Z,10.43
2018-09-27T09:19:05.110Z,11.23
2018-09-27T09:21:33.743Z,11.10
2018-09-27T09:24:02.894Z,10.80
2018-09-27T09:26:31.690Z,11.40
2018-09-27T09:29:00.202Z,11.40
2018-09-27T09:31:28.998Z,10.47
2018-09-27T09:33:57.556Z,10.67
2018-09-27T09:36:26.760Z,9.77
2018-09-27T09:38:55.388Z,10.10
2018-09-27T09:41:27.741Z,11.30
2018-09-27T09:43:56.244Z,10.37
2018-09-27T09:46:24.794Z,10.37
2018-09-27T09:48:53.367Z,9.57
2018-09-27T09:51:21.863Z,9.70
2018-09-27T09:53:50.395Z,9.17
2018-09-27T09:56:19.015Z,8.87
2018-09-27T09:58:47.582Z,8.60
2018-09-27T10:01:16.164Z,8.87
2018-09-27T10:03:44.690Z,9.10
2018-09-27T10:06:13.298Z,9.63
2018-09-27T10:08:41.808Z,8.67
2018-09-27T10:11:10.387Z,9.70
2018-09-27T10:13:38.957Z,9.77
2018-09-27T10:16:07.418Z,10.07
2018-09-27T10:18:36.067Z,10.23
2018-09-27T10:21:04.684Z,10.77
2018-09-27T10:23:33.197Z,10.47
2018-09-27T10:26:01.671Z,10.37
2018-09-27T10:28:30.647Z,10.10
2018-09-27T10:30:59.939Z,9.23
2018-09-27T10:33:28.459Z,10.17
2018-09-27T10:35:57.037Z,10.33
2018-09-27T10:38:25.896Z,10.73
2018-09-27T10:40:54.567Z,10.07
2018-09-27T10:43:23.739Z,10.00
2018-09-27T10:45:52.290Z,10.03
2018-09-27T10:48:20.959Z,10.60
2018-09-27T10:50:52.090Z,10.13
2018-09-27T10:53:21.936Z,10.27
2018-09-27T10:55:50.605Z,10.63
2018-09-27T10:58:19.626Z,9.83
2018-09-27T11:00:48.754Z,10.13
2018-09-27T11:03:17.358Z,9.30
2018-09-27T11:05:45.991Z,9.60
2018-09-27T11:08:15.305Z,11.80
2018-09-27T11:10:44.062Z,10.47
2018-09-27T11:13:12.679Z,10.50
2018-09-27T11:15:41.212Z,9.57
2018-09-27T11:18:09.802Z,8.93
2018-09-27T11:20:39.281Z,8.47
2018-09-27T11:23:08.209Z,8.80
2018-09-27T11:25:36.788Z,8.70
2018-09-27T11:28:05.293Z,9.10
2018-09-27T11:30:36.255Z,7.77
2018-09-27T11:33:04.889Z,7.67
2018-09-27T11:35:33.352Z,8.07
2018-09-27T11:38:01.946Z,8.10
2018-09-27T11:40:30.462Z,7.73
2018-09-27T11:42:59.329Z,7.80
2018-09-27T11:45:27.967Z,8.20
2018-09-27T11:47:56.441Z,8.97
2018-09-27T11:50:25.632Z,7.97
2018-09-27T11:52:54.122Z,7.17
2018-09-27T11:55:22.641Z,7.50
2018-09-27T11:57:53.090Z,7.37
2018-09-27T12:00:23.225Z,6.50
2018-09-27T12:02:52.834Z,7.27
2018-09-27T12:05:21.552Z,6.13
2018-09-27T12:07:50.121Z,7.13
2018-09-27T12:10:18.841Z,6.63
2018-09-27T12:12:47.334Z,6.87
2018-09-27T12:15:16.451Z,6.13
2018-09-27T12:17:45.137Z,7.07
2018-09-27T12:20:13.614Z,6.37
2018-09-27T12:22:42.198Z,7.07
2018-09-27T12:25:10.699Z,6.57
2018-09-27T12:27:39.167Z,6.53
2018-09-27T12:30:07.590Z,7.13
2018-09-27T12:32:36.727Z,6.37
2018-09-27T12:35:05.259Z,6.87
2018-09-27T12:37:33.783Z,7.13
2018-09-27T12:40:02.323Z,6.87
2018-09-27T12:42:30.903Z,6.90
2018-09-27T12:45:00.074Z,6.40
2018-09-27T12:47:28.623Z,5.93
2018-09-27T12:49:57.768Z,6.37
2018-09-27T12:52:26.384Z,6.50
2018-09-27T12:54:55.494Z,6.90
2018-09-27T12:57:24.778Z,6.00
2018-09-27T12:59:53.231Z,6.43
2018-09-27T13:02:21.904Z,6.53
2018-09-27T13:04:51.577Z,7.03
2018-09-27T13:07:20.751Z,6.23
2018-09-27T13:09:49.730Z,6.57
2018-09-27T13:12:18.287Z,6.00
2018-09-27T13:14:52.648Z,6.80
2018-09-27T13:17:21.239Z,6.70
2018-09-27T13:19:49.688Z,7.60
2018-09-27T13:22:18.225Z,6.53
2018-09-27T13:24:46.919Z,6.70
2018-09-27T13:27:15.626Z,5.90
2018-09-27T13:29:44.376Z,6.20
2018-09-27T13:32:13.023Z,5.87
2018-09-27T13:34:41.807Z,6.10
2018-09-27T13:37:11.621Z,5.70
2018-09-27T13:39:40.557Z,5.97
2018-09-27T13:42:09.031Z,5.40
2018-09-27T13:44:37.704Z,5.63
2018-09-27T13:47:07.113Z,5.40
2018-09-27T13:49:35.594Z,5.50
2018-09-27T13:52:04.018Z,5.47
2018-09-27T13:54:32.982Z,5.73
2018-09-27T13:57:02.238Z,5.53
2018-09-27T13:59:31.888Z,5.47
2018-09-27T14:02:00.948Z,5.40
2018-09-27T14:04:29.740Z,5.70
2018-09-27T14:06:58.265Z,5.43
2018-09-27T14:09:26.926Z,5.17
2018-09-27T14:11:56.651Z,4.80
2018-09-27T14:14:25.198Z,5.20
2018-09-27T14:16:53.697Z,4.63
2018-09-27T14:19:22.186Z,4.80
2018-09-27T14:21:51.499Z,4.90
2018-09-27T14:24:20.219Z,5.07
2018-09-27T14:26:48.811Z,5.30
2018-09-27T14:29:17.953Z,5.13
2018-09-27T14:31:46.979Z,4.90
2018-09-27T14:34:15.541Z,4.23
2018-09-27T14:36:44.152Z,4.47
2018-09-27T14:39:12.631Z,5.20
2018-09-27T14:41:41.505Z,4.73
2018-09-27T14:44:10.695Z,5.03
2018-09-27T14:46:40.218Z,4.47
2018-09-27T14:49:09.152Z,4.50
2018-09-27T14:51:38.355Z,4.53
2018-09-27T14:54:07.065Z,4.70
2018-09-27T14:56:35.857Z,4.47
2018-09-27T14:59:04.289Z,4.37
2018-09-27T15:01:32.764Z,4.27
2018-09-27T15:04:01.196Z,4.33
2018-09-27T15:06:30.657Z,3.80
2018-09-27T15:08:59.205Z,4.20
2018-09-27T15:11:27.813Z,3.80
2018-09-27T15:13:56.333Z,3.30
2018-09-27T15:16:24.814Z,4.20
2018-09-27T15:18:53.358Z,4.03
2018-09-27T15:21:21.928Z,3.67
2018-09-27T15:23:50.463Z,3.50
2018-09-27T15:26:19.522Z,3.80
2018-09-27T15:28:48.004Z,4.10
2018-09-27T15:31:16.531Z,3.90
2018-09-27T15:33:44.994Z,4.37
2018-09-27T15:36:14.068Z,3.67
2018-09-27T15:38:43.428Z,3.83
2018-09-27T15:41:11.877Z,3.73
2018-09-27T15:43:40.392Z,3.17
2018-09-27T15:46:08.894Z,3.80
2018-09-27T15:48:38.192Z,3.80
2018-09-27T15:51:06.750Z,3.43
2018-09-27T15:53:35.228Z,3.93
2018-09-27T15:56:04.855Z,4.47
2018-09-27T15:58:33.367Z,4.20
2018-09-27T16:01:02.571Z,4.60
2018-09-27T16:03:31.475Z,4.00
2018-09-27T16:05:59.959Z,5.10
2018-09-27T16:08:29.008Z,5.70
2018-09-27T16:10:57.480Z,5.70
2018-09-27T16:13:25.939Z,6.03
2018-09-27T16:15:54.486Z,5.50
2018-09-27T16:18:22.957Z,6.07
2018-09-27T16:20:51.437Z,6.23
2018-09-27T16:23:20.100Z,6.27
2018-09-27T16:25:48.546Z,6.73
2018-09-27T16:28:17.227Z,6.53
2018-09-27T16:30:45.707Z,6.47
2018-09-27T16:33:14.195Z,5.93
2018-09-27T16:35:42.739Z,6.27
2018-09-27T16:38:11.333Z,6.70
2018-09-27T16:40:39.809Z,6.43
2018-09-27T16:43:09.514Z,6.20
2018-09-27T16:45:38.129Z,6.60
2018-09-27T16:48:06.652Z,6.40
2018-09-27T16:50:35.249Z,5.30
2018-09-27T16:53:03.737Z,5.20
2018-09-27T16:55:32.923Z,6.17
2018-09-27T16:58:02.085Z,5.67
2018-09-27T17:00:30.561Z,6.40
2018-09-27T17:02:59.310Z,6.07
2018-09-27T17:05:27.874Z,5.60
2018-09-27T17:07:56.385Z,6.37
2018-09-27T17:10:24.858Z,5.53
2018-09-27T17:12:54.377Z,5.83
2018-09-27T17:15:23.391Z,7.37
2018-09-27T17:17:51.865Z,7.07
2018-09-27T17:20:20.530Z,6.37
2018-09-27T17:22:49.816Z,5.70
2018-09-27T17:25:18.375Z,5.47
2018-09-27T17:27:46.849Z,10.63
2018-09-27T17:30:16.350Z,8.50
2018-09-27T17:32:45.331Z,13.97
2018-09-27T17:35:13.900Z,17.80
2018-09-27T17:37:43.260Z,13.43
2018-09-27T17:40:12.826Z,14.53
2018-09-27T17:42:42.111Z,17.50
2018-09-27T17:45:11.388Z,17.47
2018-09-27T17:47:39.920Z,11.20
2018-09-27T17:50:08.623Z,12.70
2018-09-27T17:52:37.093Z,11.73
2018-09-27T17:55:06.118Z,11.90
2018-09-27T17:57:35.385Z,11.47
2018-09-27T18:00:03.957Z,10.23
2018-09-27T18:02:32.426Z,9.63
2018-09-27T18:05:01.048Z,9.77
2018-09-27T18:07:30.326Z,9.47
2018-09-27T18:09:58.889Z,8.60
2018-09-27T18:12:27.459Z,7.87
2018-09-27T18:14:57.377Z,8.80
2018-09-27T18:17:26.940Z,9.63
2018-09-27T18:19:56.169Z,9.20
2018-09-27T18:22:25.233Z,10.47
2018-09-27T18:24:53.672Z,10.97
2018-09-27T18:27:22.216Z,10.10
2018-09-27T18:29:50.680Z,10.90
2018-09-27T18:32:20.067Z,11.30
2018-09-27T18:34:48.582Z,10.67
2018-09-27T18:37:17.927Z,10.20
2018-09-27T18:39:46.512Z,10.13
2018-09-27T18:42:15.245Z,9.13
2018-09-27T18:44:44.854Z,8.83
2018-09-27T18:47:13.355Z,9.63
2018-09-27T18:49:42.306Z,9.23
2018-09-27T18:52:10.765Z,8.50
2018-09-27T18:54:39.407Z,9.07
2018-09-27T18:57:07.872Z,10.43
2018-09-27T18:59:36.451Z,10.37
2018-09-27T19:02:05.442Z,9.83
2018-09-27T19:04:34.718Z,9.53
2018-09-27T19:07:03.280Z,9.33
2018-09-27T19:09:32.527Z,10.67
2018-09-27T19:12:01.020Z,9.87
2018-09-27T19:14:29.689Z,9.37
2018-09-27T19:16:58.344Z,9.73
2018-09-27T19:19:26.674Z,9.53
2018-09-27T19:21:55.963Z,9.33
2018-09-27T19:24:25.080Z,8.90
2018-09-27T19:26:54.492Z,7.60
2018-09-27T19:29:22.930Z,8.50
2018-09-27T19:31:51.705Z,8.30
2018-09-27T19:34:20.204Z,8.30
2018-09-27T19:36:48.673Z,11.33
2018-09-27T19:39:17.518Z,12.57
2018-09-27T19:41:46.016Z,12.87
2018-09-27T19:44:14.579Z,13.43
2018-09-27T19:46:43.090Z,12.03
2018-09-27T19:49:12.257Z,10.83
2018-09-27T19:51:40.863Z,10.30
2018-09-27T19:54:09.348Z,10.97
2018-09-27T19:56:38.444Z,10.60
2018-09-27T19:59:07.204Z,13.97
2018-09-27T20:01:35.708Z,16.93
2018-09-27T20:04:04.279Z,30.30
2018-09-27T20:06:32.801Z,34.27
2018-09-27T20:09:02.461Z,32.50
2018-09-27T20:11:30.932Z,25.73
2018-09-27T20:13:59.567Z,23.97
2018-09-27T20:16:28.051Z,23.93
2018-09-27T20:18:56.688Z,23.77
2018-09-27T20:21:26.362Z,18.70
2018-09-27T20:23:54.847Z,14.90
2018-09-27T20:26:23.468Z,12.73
2018-09-27T20:28:51.957Z,11.73
2018-09-27T20:31:21.193Z,11.30
2018-09-27T20:33:49.756Z,10.70
2018-09-27T20:36:18.519Z,10.47
2018-09-27T20:38:47.547Z,9.70
2018-09-27T20:41:16.985Z,9.03
2018-09-27T20:43:45.557Z,9.47
2018-09-27T20:46:14.091Z,9.63
2018-09-27T20:48:43.851Z,8.90
2018-09-27T20:51:12.691Z,8.90
2018-09-27T20:53:41.214Z,9.07
2018-09-27T20:56:11.027Z,9.10
2018-09-27T20:58:39.496Z,8.83
2018-09-27T21:01:08.221Z,9.27
2018-09-27T21:03:37.654Z,9.43
2018-09-27T21:06:06.320Z,8.53
2018-09-27T21:08:35.056Z,8.93
2018-09-27T21:11:03.651Z,10.17
2018-09-27T21:13:32.803Z,9.90
2018-09-27T21:16:01.245Z,10.87
2018-09-27T21:18:30.496Z,9.63
2018-09-27T21:20:59.760Z,9.10
2018-09-27T21:23:28.819Z,9.53
2018-09-27T21:25:57.269Z,9.53
2018-09-27T21:28:25.767Z,10.30
2018-09-27T21:30:54.999Z,9.73
2018-09-27T21:33:23.888Z,8.77
2018-09-27T21:35:53.181Z,8.80
2018-09-27T21:38:22.159Z,9.80
2018-09-27T21:40:50.644Z,10.57
2018-09-27T21:43:19.236Z,12.27
2018-09-27T21:45:48.055Z,12.43
2018-09-27T21:48:16.466Z,9.80
2018-09-27T21:50:45.629Z,10.23
2018-09-27T21:53:14.362Z,9.80
2018-09-27T21:55:43.102Z,9.27
2018-09-27T21:58:11.734Z,9.70
2018-09-27T22:00:41.877Z,10.97
2018-09-27T22:03:10.683Z,9.80
2018-09-27T22:05:40.065Z,10.50
2018-09-27T22:08:08.652Z,10.30
2018-09-27T22:10:38.087Z,11.37
2018-09-27T22:13:06.849Z,11.23
2018-09-27T22:15:35.577Z,12.00
2018-09-27T22:18:04.855Z,11.00
2018-09-27T22:20:34.311Z,11.70
2018-09-27T22:23:03.053Z,10.50
2018-09-27T22:25:32.437Z,10.57
2018-09-27T22:28:02.089Z,12.00
2018-09-27T22:30:30.710Z,11.70
2018-09-27T22:33:00.132Z,12.60
2018-09-27T22:35:28.856Z,12.67
2018-09-27T22:37:58.688Z,13.87
2018-09-27T22:40:27.266Z,12.63
2018-09-27T22:42:56.415Z,13.43
2018-09-27T22:45:25.706Z,13.53
2018-09-27T22:47:55.233Z,14.03
2018-09-27T22:50:24.502Z,12.50
2018-09-27T22:52:53.083Z,13.17
2018-09-27T22:55:22.004Z,14.97
2018-09-27T22:57:50.618Z,17.33
2018-09-27T23:00:19.785Z,15.90
2018-09-27T23:02:48.413Z,15.93
2018-09-27T23:05:17.080Z,15.53
2018-09-27T23:07:46.612Z,14.73
2018-09-27T23:10:15.888Z,15.07
2018-09-27T23:12:44.500Z,16.40
2018-09-27T23:15:13.120Z,16.77
2018-09-27T23:17:41.805Z,16.33
2018-09-27T23:20:11.838Z,15.70
2018-09-27T23:22:41.106Z,15.80
2018-09-27T23:25:10.340Z,16.33
2018-09-27T23:27:39.086Z,16.13
2018-09-27T23:30:08.689Z,17.70
2018-09-27T23:32:39.167Z,17.60
2018-09-27T23:35:07.939Z,18.47
2018-09-27T23:37:37.275Z,18.37
2018-09-27T23:40:06.552Z,17.17
2018-09-27T23:42:36.366Z,18.77
2018-09-27T23:45:05.128Z,19.23
2018-09-27T23:47:33.831Z,18.37
2018-09-27T23:50:02.452Z,18.47
2018-09-27T23:52:31.468Z,17.47
2018-09-27T23:55:01.475Z,17.67
2018-09-27T23:57:30.063Z,18.27
2018-09-27T23:59:59.484Z,20.63
